Terminal Aerodrome Forecast
Issued by NWS Wilmington, OH

Current Version | Previous Version | Graphics & Text | Print | Product List | Glossary On
Versions: 1 2 3 4 5 6 7 8 9 10 11 12 13 14 15 16
000
FTUS41 KILN 180537
TAFCMH
TAF
KCMH 180537Z 1806/1906 21006KT P6SM VCSH SCT012 BKN100
      TEMPO 1807/1811 5SM BR BKN008
     FM181100 23005KT P6SM SCT010 SCT040
     FM181400 25010KT P6SM SCT035
     FM181800 26013G20KT P6SM SCT040
     FM190000 28009KT P6SM SCT200=

USA.gov is the U.S. government's official web portal to all federal, state and local government web resources and services.